createdAt,value
2022-09-28T00:01:40.439Z,100.00
2022-09-28T00:04:28.947Z,100.00
2022-09-28T00:07:18.707Z,100.00
2022-09-28T00:10:08.153Z,100.00
2022-09-28T00:12:56.664Z,100.00
2022-09-28T00:15:45.074Z,100.00
2022-09-28T00:18:33.743Z,100.00
2022-09-28T00:21:23.591Z,100.00
2022-09-28T00:24:15.900Z,100.00
2022-09-28T00:27:04.596Z,100.00
2022-09-28T00:29:53.046Z,100.00
2022-09-28T00:32:41.487Z,100.00
2022-09-28T00:35:29.896Z,100.00
2022-09-28T00:38:18.387Z,100.00
2022-09-28T00:41:08.256Z,100.00
2022-09-28T00:44:31.717Z,100.00
2022-09-28T00:47:32.147Z,100.00
2022-09-28T00:50:26.369Z,100.00
2022-09-28T00:53:19.023Z,100.00
2022-09-28T00:56:11.355Z,100.00
2022-09-28T00:59:01.032Z,100.00
2022-09-28T01:01:49.593Z,100.00
2022-09-28T01:04:38.421Z,100.00
2022-09-28T01:07:26.867Z,100.00
2022-09-28T01:10:15.617Z,100.00
2022-09-28T01:13:05.553Z,100.00
2022-09-28T01:15:57.915Z,100.00
2022-09-28T01:18:53.729Z,100.00
2022-09-28T01:21:50.627Z,100.00
2022-09-28T01:24:41.738Z,100.00
2022-09-28T01:27:34.148Z,100.00
2022-09-28T01:30:22.930Z,100.00
2022-09-28T01:33:14.700Z,100.00
2022-09-28T01:36:07.344Z,100.00
2022-09-28T01:38:57.372Z,100.00
2022-09-28T01:41:47.377Z,100.00
2022-09-28T01:44:39.873Z,100.00
2022-09-28T01:47:33.003Z,100.00
2022-09-28T01:50:24.059Z,100.00
2022-09-28T01:53:16.864Z,100.00
2022-09-28T01:56:08.403Z,100.00
2022-09-28T01:59:00.847Z,100.00
2022-09-28T02:01:54.194Z,100.00
2022-09-28T02:04:45.151Z,100.00
2022-09-28T02:07:36.417Z,100.00
2022-09-28T02:10:27.156Z,100.00
2022-09-28T02:13:18.178Z,100.00
2022-09-28T02:16:11.680Z,100.00
2022-09-28T02:19:01.688Z,100.00
2022-09-28T02:21:55.683Z,100.00
2022-09-28T02:24:47.475Z,100.00
2022-09-28T02:27:38.998Z,100.00
2022-09-28T02:30:27.723Z,100.00
2022-09-28T02:33:19.443Z,100.00
2022-09-28T02:36:09.491Z,100.00
2022-09-28T02:38:58.634Z,100.00
2022-09-28T02:41:56.020Z,100.00
2022-09-28T02:45:04.521Z,100.00
2022-09-28T02:48:04.543Z,100.00
2022-09-28T02:51:01.950Z,100.00
2022-09-28T02:54:02.384Z,100.00
2022-09-28T02:57:03.020Z,100.00
2022-09-28T02:59:54.705Z,100.00
2022-09-28T03:02:53.286Z,100.00
2022-09-28T03:05:46.520Z,100.00
2022-09-28T03:08:38.758Z,100.00
2022-09-28T03:11:32.168Z,100.00
2022-09-28T03:14:21.720Z,100.00
2022-09-28T03:17:10.170Z,100.00
2022-09-28T03:19:58.594Z,100.00
2022-09-28T03:23:00.502Z,100.00
2022-09-28T03:25:56.061Z,100.00
2022-09-28T03:28:45.824Z,100.00
2022-09-28T03:31:35.093Z,100.00
2022-09-28T03:34:23.597Z,100.00
2022-09-28T03:37:12.036Z,100.00
2022-09-28T03:40:00.451Z,100.00
2022-09-28T03:42:48.913Z,100.00
2022-09-28T03:45:38.777Z,100.00
2022-09-28T03:48:32.127Z,100.00
2022-09-28T03:51:21.220Z,100.00
2022-09-28T03:54:09.674Z,100.00
2022-09-28T03:56:58.170Z,100.00
2022-09-28T03:59:46.603Z,100.00
2022-09-28T04:02:36.478Z,100.00
2022-09-28T04:05:25.073Z,100.00
2022-09-28T04:08:13.505Z,100.00
2022-09-28T04:11:02.563Z,100.00
2022-09-28T04:13:51.218Z,100.00
2022-09-28T04:16:39.702Z,100.00
2022-09-28T04:19:29.513Z,100.00
2022-09-28T04:22:17.923Z,100.00
2022-09-28T04:25:06.596Z,100.00
2022-09-28T04:28:12.652Z,100.00
2022-09-28T04:31:01.080Z,100.00
2022-09-28T04:33:49.561Z,100.00
2022-09-28T04:36:39.334Z,100.00
2022-09-28T04:39:27.791Z,100.00
2022-09-28T04:42:16.245Z,100.00
2022-09-28T04:45:05.734Z,100.00
2022-09-28T04:47:54.582Z,100.00
2022-09-28T04:50:42.979Z,100.00
2022-09-28T04:53:32.824Z,100.00
2022-09-28T04:56:21.384Z,100.00
2022-09-28T04:59:09.907Z,100.00
2022-09-28T05:01:58.533Z,100.00
2022-09-28T05:04:47.002Z,100.00
2022-09-28T05:07:35.500Z,100.00
2022-09-28T05:10:25.348Z,100.00
2022-09-28T05:13:15.229Z,100.00
2022-09-28T05:16:05.604Z,100.00
2022-09-28T05:18:56.225Z,100.00
2022-09-28T05:21:45.353Z,100.00
2022-09-28T05:24:33.979Z,100.00
2022-09-28T05:27:23.852Z,100.00
2022-09-28T05:30:13.244Z,100.00
2022-09-28T05:33:01.805Z,100.00
2022-09-28T05:35:54.440Z,100.00
2022-09-28T05:38:44.440Z,100.00
2022-09-28T05:41:33.050Z,100.00
2022-09-28T05:44:22.839Z,100.00
2022-09-28T05:47:11.533Z,100.00
2022-09-28T05:49:59.946Z,100.00
2022-09-28T05:52:50.133Z,100.00
2022-09-28T05:55:39.818Z,100.00
2022-09-28T05:58:28.880Z,100.00
2022-09-28T06:01:18.698Z,100.00
2022-09-28T06:04:07.896Z,100.00
2022-09-28T06:06:56.341Z,100.00
2022-09-28T06:09:44.980Z,100.00
2022-09-28T06:12:34.814Z,100.00
2022-09-28T06:15:23.879Z,100.00
2022-09-28T06:18:15.154Z,100.00
2022-09-28T06:21:03.899Z,100.00
2022-09-28T06:23:52.324Z,100.00
2022-09-28T06:26:40.900Z,100.00
2022-09-28T06:29:29.909Z,100.00
2022-09-28T06:32:18.359Z,100.00
2022-09-28T06:35:09.893Z,100.00
2022-09-28T06:37:59.068Z,100.00
2022-09-28T06:40:47.582Z,100.00
2022-09-28T06:43:36.663Z,100.00
2022-09-28T06:46:25.469Z,100.00
2022-09-28T06:49:18.627Z,100.00
2022-09-28T06:52:09.162Z,100.00
2022-09-28T06:54:57.648Z,100.00
2022-09-28T06:57:46.057Z,100.00
2022-09-28T07:00:36.442Z,100.00
2022-09-28T07:03:24.874Z,100.00
2022-09-28T07:06:13.767Z,100.00
2022-09-28T07:09:27.858Z,100.00
2022-09-28T07:12:14.825Z,100.00
2022-09-28T07:15:03.801Z,100.00
2022-09-28T07:18:02.748Z,100.00
2022-09-28T07:20:54.670Z,100.00
2022-09-28T07:23:52.105Z,100.00
2022-09-28T07:26:45.381Z,100.00
2022-09-28T07:29:33.845Z,100.00
2022-09-28T07:32:22.503Z,100.00
2022-09-28T07:35:10.999Z,100.00
2022-09-28T07:38:01.417Z,100.00
2022-09-28T07:41:07.566Z,100.00
2022-09-28T07:43:58.972Z,100.00
2022-09-28T07:46:47.404Z,100.00
2022-09-28T07:49:36.066Z,100.00
2022-09-28T07:52:26.077Z,100.00
2022-09-28T07:55:14.608Z,100.00
2022-09-28T07:58:03.052Z,100.00
2022-09-28T08:00:52.903Z,100.00
2022-09-28T08:03:45.207Z,100.00
2022-09-28T08:06:33.660Z,100.00
2022-09-28T08:09:22.138Z,100.00
2022-09-28T08:12:11.198Z,100.00
2022-09-28T08:15:00.164Z,100.00
2022-09-28T08:17:50.505Z,100.00
2022-09-28T08:20:59.129Z,100.00
2022-09-28T08:23:47.677Z,100.00
2022-09-28T08:26:36.205Z,100.00
2022-09-28T08:29:24.626Z,100.00
2022-09-28T08:32:13.124Z,100.00
2022-09-28T08:35:03.136Z,100.00
2022-09-28T08:37:55.657Z,100.00
2022-09-28T08:40:49.560Z,100.00
2022-09-28T08:43:53.453Z,100.00
2022-09-28T08:46:43.729Z,100.00
2022-09-28T08:49:36.718Z,100.00
2022-09-28T08:52:29.776Z,100.00
2022-09-28T08:55:23.093Z,100.00
2022-09-28T08:58:13.415Z,100.00
2022-09-28T09:01:04.582Z,100.00
2022-09-28T09:03:53.335Z,100.00
2022-09-28T09:07:04.984Z,100.00
2022-09-28T09:10:02.477Z,100.00
2022-09-28T09:13:01.001Z,100.00
2022-09-28T09:15:54.056Z,100.00
2022-09-28T09:18:45.590Z,100.00
2022-09-28T09:21:41.543Z,100.00
2022-09-28T09:24:39.873Z,100.00
2022-09-28T09:27:44.270Z,100.00
2022-09-28T09:30:36.155Z,100.00
2022-09-28T09:33:47.700Z,100.00
2022-09-28T09:36:47.241Z,100.00
2022-09-28T09:39:44.847Z,100.00
2022-09-28T09:42:45.963Z,100.00
2022-09-28T09:45:48.671Z,100.00
2022-09-28T09:48:41.701Z,100.00
2022-09-28T09:51:37.534Z,100.00
2022-09-28T09:54:28.618Z,100.00
2022-09-28T09:57:20.231Z,100.00
2022-09-28T10:00:14.897Z,100.00
2022-09-28T10:03:03.364Z,100.00
2022-09-28T10:05:57.480Z,100.00
2022-09-28T10:08:49.994Z,100.00
2022-09-28T10:11:43.979Z,100.00
2022-09-28T10:14:32.457Z,100.00
2022-09-28T10:17:27.139Z,97.82
2022-09-28T10:20:16.365Z,95.36
2022-09-28T10:23:06.765Z,91.68
2022-09-28T10:25:57.999Z,93.54
2022-09-28T10:28:49.665Z,95.15
2022-09-28T10:31:39.875Z,94.54
2022-09-28T10:34:31.066Z,96.40
2022-09-28T10:37:19.820Z,97.87
2022-09-28T10:40:30.220Z,98.39
2022-09-28T10:43:22.820Z,100.00
2022-09-28T10:46:13.610Z,100.00
2022-09-28T10:49:04.547Z,100.00
2022-09-28T10:51:56.191Z,95.82
2022-09-28T10:54:54.063Z,92.69
2022-09-28T10:57:42.598Z,87.86
2022-09-28T11:00:34.439Z,88.36
2022-09-28T11:03:25.291Z,87.86
2022-09-28T11:06:13.830Z,86.17
2022-09-28T11:09:05.292Z,86.80
2022-09-28T11:18:22.496Z,88.12
2022-09-28T11:21:14.242Z,82.86
2022-09-28T11:24:07.272Z,80.09
2022-09-28T11:26:57.500Z,81.76
2022-09-28T11:29:46.924Z,80.64
2022-09-28T11:32:43.918Z,83.83
2022-09-28T11:35:44.019Z,82.88
2022-09-28T11:38:34.761Z,83.87
2022-09-28T11:41:37.936Z,83.81
2022-09-28T11:44:44.645Z,82.43
2022-09-28T11:47:46.907Z,85.60
2022-09-28T11:50:43.925Z,85.67
2022-09-28T11:53:37.110Z,86.04
2022-09-28T11:56:34.557Z,85.18
2022-09-28T11:59:27.736Z,82.42
2022-09-28T12:02:18.875Z,82.52
2022-09-28T12:05:18.514Z,82.75
2022-09-28T12:08:14.796Z,83.38
2022-09-28T12:11:09.709Z,83.01
2022-09-28T12:14:10.091Z,78.97
2022-09-28T12:17:07.980Z,80.10
2022-09-28T12:20:00.663Z,79.37
2022-09-28T12:22:59.464Z,78.15
2022-09-28T12:25:50.798Z,76.81
2022-09-28T12:28:45.428Z,74.82
2022-09-28T12:31:39.380Z,71.66
2022-09-28T12:34:29.603Z,71.84
2022-09-28T12:37:28.868Z,72.70
2022-09-28T12:40:34.459Z,73.04
2022-09-28T12:43:33.752Z,68.78
2022-09-28T12:46:48.901Z,66.00
2022-09-28T12:53:38.739Z,68.31
2022-09-28T12:56:32.777Z,67.22
2022-09-28T12:59:26.634Z,69.28
2022-09-28T13:02:33.429Z,66.41
2022-09-28T13:05:34.401Z,69.76
2022-09-28T13:08:27.867Z,71.07
2022-09-28T13:11:22.355Z,71.83
2022-09-28T13:14:36.440Z,73.18
2022-09-28T13:17:38.732Z,75.77
2022-09-28T13:20:36.794Z,74.85
2022-09-28T13:23:28.592Z,72.66
2022-09-28T13:26:23.602Z,71.41
2022-09-28T13:29:14.580Z,71.62
2022-09-28T13:32:04.224Z,70.11
2022-09-28T13:34:54.735Z,66.87
2022-09-28T13:37:43.231Z,66.49
2022-09-28T13:41:01.463Z,66.26
2022-09-28T13:44:16.518Z,63.58
2022-09-28T13:47:20.529Z,60.76
2022-09-28T13:50:21.430Z,59.59
2022-09-28T13:53:19.124Z,60.06
2022-09-28T13:56:22.977Z,62.01
2022-09-28T13:59:17.257Z,62.09
2022-09-28T14:02:13.602Z,59.92
2022-09-28T14:05:04.478Z,58.58
2022-09-28T14:07:59.630Z,61.13
2022-09-28T14:10:51.815Z,60.83
2022-09-28T14:14:00.274Z,60.11
2022-09-28T14:16:48.753Z,61.75
2022-09-28T14:19:37.244Z,61.58
2022-09-28T14:22:28.875Z,63.40
2022-09-28T14:25:23.997Z,64.87
2022-09-28T14:28:37.682Z,65.38
2022-09-28T14:31:27.621Z,64.48
2022-09-28T14:34:34.538Z,65.84
2022-09-28T14:37:44.120Z,66.69
2022-09-28T14:41:10.978Z,69.79
2022-09-28T14:44:02.547Z,69.00
2022-09-28T14:46:51.004Z,67.99
2022-09-28T14:49:48.888Z,67.43
2022-09-28T14:52:42.370Z,69.27
2022-09-28T14:55:35.778Z,68.25
2022-09-28T14:58:26.697Z,67.48
2022-09-28T15:01:20.178Z,67.85
2022-09-28T15:04:11.467Z,68.50
2022-09-28T15:07:00.201Z,68.39
2022-09-28T15:09:53.310Z,66.70
2022-09-28T15:12:44.718Z,66.90
2022-09-28T15:15:35.567Z,65.73
2022-09-28T15:18:58.570Z,68.90
2022-09-28T15:21:50.100Z,68.82
2022-09-28T15:24:40.186Z,68.30
2022-09-28T15:27:35.629Z,67.39
2022-09-28T15:30:31.719Z,65.08
2022-09-28T15:33:43.059Z,67.35
2022-09-28T15:36:33.794Z,69.88
2022-09-28T15:39:25.443Z,73.35
2022-09-28T15:42:13.987Z,77.54
2022-09-28T15:45:17.363Z,81.58
2022-09-28T15:48:27.267Z,83.60
2022-09-28T15:51:15.805Z,85.05
2022-09-28T15:54:05.925Z,85.54
2022-09-28T15:56:57.740Z,86.37
2022-09-28T15:59:56.767Z,88.20
2022-09-28T16:03:02.234Z,89.47
2022-09-28T16:05:53.717Z,91.75
2022-09-28T16:08:43.748Z,95.55
2022-09-28T16:11:37.884Z,98.27
2022-09-28T16:14:27.392Z,100.00
2022-09-28T16:17:18.448Z,100.00
2022-09-28T16:20:23.122Z,100.00
2022-09-28T16:23:21.250Z,100.00
2022-09-28T16:26:15.739Z,100.00
2022-09-28T16:29:10.048Z,100.00
2022-09-28T16:31:58.479Z,100.00
2022-09-28T16:34:46.987Z,100.00
2022-09-28T16:37:35.428Z,100.00
2022-09-28T16:40:25.426Z,100.00
2022-09-28T16:43:19.505Z,100.00
2022-09-28T16:46:10.232Z,100.00
2022-09-28T16:49:01.504Z,100.00
2022-09-28T16:51:50.092Z,100.00
2022-09-28T16:54:56.127Z,100.00
2022-09-28T16:57:46.828Z,100.00
2022-09-28T17:00:35.396Z,100.00
2022-09-28T17:03:24.386Z,100.00
2022-09-28T17:06:13.603Z,100.00
2022-09-28T17:09:06.767Z,100.00
2022-09-28T17:11:56.860Z,100.00
2022-09-28T17:14:46.821Z,100.00
2022-09-28T17:17:35.373Z,100.00
2022-09-28T17:20:26.799Z,100.00
2022-09-28T17:23:15.321Z,100.00
2022-09-28T17:26:05.399Z,94.13
2022-09-28T17:28:54.790Z,85.47
2022-09-28T17:31:45.638Z,89.74
2022-09-28T17:34:34.132Z,93.96
2022-09-28T17:37:22.606Z,97.40
2022-09-28T17:40:20.113Z,100.00
2022-09-28T17:43:08.672Z,100.00
2022-09-28T17:45:57.321Z,100.00
2022-09-28T17:48:47.467Z,100.00
2022-09-28T17:51:38.235Z,100.00
2022-09-28T17:54:27.198Z,100.00
2022-09-28T17:57:15.701Z,100.00
2022-09-28T18:00:05.300Z,100.00
2022-09-28T18:02:54.325Z,100.00
2022-09-28T18:05:44.607Z,100.00
2022-09-28T18:08:33.663Z,100.00
2022-09-28T18:11:22.609Z,100.00
2022-09-28T18:14:11.477Z,100.00
2022-09-28T18:17:00.224Z,100.00
2022-09-28T18:19:48.892Z,100.00
2022-09-28T18:22:39.020Z,100.00
2022-09-28T18:25:27.678Z,100.00
2022-09-28T18:28:16.222Z,100.00
2022-09-28T18:31:08.620Z,100.00
2022-09-28T18:34:01.838Z,100.00
2022-09-28T18:36:50.466Z,100.00
2022-09-28T18:39:40.375Z,100.00
2022-09-28T18:42:28.928Z,100.00
2022-09-28T18:45:17.855Z,100.00
2022-09-28T18:48:06.452Z,100.00
2022-09-28T18:50:54.957Z,100.00
2022-09-28T18:53:43.568Z,100.00
2022-09-28T18:56:34.215Z,100.00
2022-09-28T18:59:22.814Z,100.00
2022-09-28T19:02:11.915Z,100.00
2022-09-28T19:05:00.649Z,100.00
2022-09-28T19:07:49.331Z,100.00
2022-09-28T19:10:37.824Z,100.00
2022-09-28T19:13:29.246Z,100.00
2022-09-28T19:16:20.607Z,100.00
2022-09-28T19:19:10.197Z,100.00
2022-09-28T19:21:58.923Z,100.00
2022-09-28T19:24:47.532Z,100.00
2022-09-28T19:27:36.039Z,100.00
2022-09-28T19:30:26.021Z,100.00
2022-09-28T19:33:14.698Z,100.00
2022-09-28T19:36:05.004Z,100.00
2022-09-28T19:38:53.888Z,100.00
2022-09-28T19:41:49.199Z,100.00
2022-09-28T19:44:39.172Z,100.00
2022-09-28T19:47:29.143Z,100.00
2022-09-28T19:50:17.803Z,100.00
2022-09-28T19:53:07.686Z,100.00
2022-09-28T19:55:57.781Z,100.00
2022-09-28T19:58:46.305Z,100.00
2022-09-28T20:01:34.955Z,100.00
2022-09-28T20:04:24.807Z,100.00
2022-09-28T20:07:13.425Z,100.00
2022-09-28T20:10:02.239Z,100.00
2022-09-28T20:12:52.495Z,100.00
2022-09-28T20:15:41.562Z,100.00
2022-09-28T20:18:33.315Z,100.00
2022-09-28T20:21:26.798Z,100.00
2022-09-28T20:24:16.520Z,100.00
2022-09-28T20:27:05.078Z,100.00
2022-09-28T20:29:53.704Z,100.00
2022-09-28T20:32:45.090Z,100.00
2022-09-28T20:35:40.367Z,100.00
2022-09-28T20:38:30.249Z,100.00
2022-09-28T20:41:21.887Z,100.00
2022-09-28T20:44:10.599Z,100.00
2022-09-28T20:46:59.200Z,100.00
2022-09-28T20:49:47.703Z,100.00
2022-09-28T20:52:36.306Z,100.00
2022-09-28T20:55:26.138Z,100.00
2022-09-28T20:58:14.793Z,100.00
2022-09-28T21:01:04.717Z,100.00
2022-09-28T21:03:54.449Z,100.00
2022-09-28T21:06:43.441Z,100.00
2022-09-28T21:09:32.395Z,100.00
2022-09-28T21:12:22.225Z,100.00
2022-09-28T21:15:11.674Z,100.00
2022-09-28T21:18:00.277Z,100.00
2022-09-28T21:20:49.402Z,100.00
2022-09-28T21:23:37.943Z,100.00
2022-09-28T21:26:29.657Z,100.00
2022-09-28T21:29:19.562Z,100.00
2022-09-28T21:32:08.194Z,100.00
2022-09-28T21:34:56.717Z,100.00
2022-09-28T21:37:46.231Z,100.00
2022-09-28T21:40:34.768Z,100.00
2022-09-28T21:43:23.342Z,100.00
2022-09-28T21:46:13.392Z,100.00
2022-09-28T21:49:02.561Z,100.00
2022-09-28T21:51:52.028Z,100.00
2022-09-28T21:54:42.516Z,100.00
2022-09-28T21:57:30.963Z,100.00
2022-09-28T22:00:23.125Z,100.00
2022-09-28T22:03:12.900Z,100.00
2022-09-28T22:06:01.432Z,100.00
2022-09-28T22:08:50.592Z,100.00
2022-09-28T22:11:39.072Z,100.00
2022-09-28T22:14:27.743Z,100.00
2022-09-28T22:17:16.229Z,100.00
2022-09-28T22:20:07.102Z,100.00
2022-09-28T22:22:55.501Z,100.00
2022-09-28T22:25:45.659Z,100.00
2022-09-28T22:28:34.607Z,100.00
2022-09-28T22:31:25.821Z,100.00
2022-09-28T22:34:14.366Z,100.00
2022-09-28T22:37:04.626Z,100.00
2022-09-28T22:39:53.585Z,100.00
2022-09-28T22:42:42.809Z,100.00
2022-09-28T22:45:31.247Z,100.00
2022-09-28T22:48:19.641Z,100.00
2022-09-28T22:51:08.369Z,100.00
2022-09-28T22:53:58.484Z,100.00
2022-09-28T22:56:46.922Z,100.00
2022-09-28T22:59:35.328Z,100.00
2022-09-28T23:02:23.777Z,100.00
2022-09-28T23:05:16.950Z,100.00
2022-09-28T23:08:05.512Z,100.00
2022-09-28T23:10:55.288Z,100.00
2022-09-28T23:13:43.942Z,100.00
2022-09-28T23:16:32.645Z,100.00
2022-09-28T23:19:21.102Z,100.00
2022-09-28T23:22:09.616Z,100.00
2022-09-28T23:24:58.106Z,100.00
2022-09-28T23:27:48.692Z,100.00
2022-09-28T23:30:37.137Z,100.00
2022-09-28T23:33:25.578Z,100.00
2022-09-28T23:36:14.353Z,100.00
2022-09-28T23:39:03.517Z,100.00
2022-09-28T23:41:51.951Z,100.00
2022-09-28T23:44:41.725Z,100.00
2022-09-28T23:47:30.169Z,100.00
2022-09-28T23:50:18.568Z,100.00
2022-09-28T23:53:06.998Z,100.00
2022-09-28T23:55:56.655Z,100.00
2022-09-28T23:58:45.086Z,100.00
